Time;durP1;ratioP1;P1;durP2;ratioP2;P2;SDS_P1;SDS_P2;PMS_P1;PMS_P2;Temp;Humidity;BMP_temperature;BMP_pressure;BME280_temperature;BME280_humidity;BME280_pressure;Samples;Min_cycle;Max_cycle;Signal;HPM_P1;HPM_P2
2023/08/08 00:00:46;;;;;;;10.93;2.55;;;;;;;13.55;100.00;99449.34;5014142;28;20654;-85
2023/08/08 00:03:12;;;;;;;13.32;2.42;;;;;;;13.59;100.00;99491.59;5024347;28;20168;-86
2023/08/08 00:05:37;;;;;;;10.47;2.37;;;;;;;13.60;100.00;99485.22;5010866;28;20357;-85
2023/08/08 00:08:03;;;;;;;14.50;2.73;;;;;;;13.58;100.00;99422.94;5015933;28;21089;-86
2023/08/08 00:10:28;;;;;;;9.80;3.30;;;;;;;13.62;100.00;99428.66;5012510;28;20033;-86
2023/08/08 00:12:53;;;;;;;19.80;2.97;;;;;;;13.57;100.00;99458.00;5013984;28;20095;-86
2023/08/08 00:15:19;;;;;;;19.00;4.90;;;;;;;13.55;100.00;99426.03;5007540;28;20524;-85
2023/08/08 00:17:44;;;;;;;19.93;4.13;;;;;;;13.59;100.00;99447.88;5009841;28;20665;-84
2023/08/08 00:20:10;;;;;;;10.93;2.73;;;;;;;13.65;100.00;99487.22;5030642;28;20131;-85
2023/08/08 00:22:35;;;;;;;14.80;2.50;;;;;;;13.58;100.00;99499.84;5011702;28;20101;-86
2023/08/08 00:25:01;;;;;;;15.63;2.67;;;;;;;13.57;100.00;99511.63;5013866;28;20116;-84
2023/08/08 00:27:26;;;;;;;17.63;3.00;;;;;;;13.50;100.00;99554.53;5011473;28;20112;-86
2023/08/08 00:29:53;;;;;;;13.13;2.90;;;;;;;13.55;100.00;99524.41;5013413;28;20041;-85
2023/08/08 00:32:18;;;;;;;12.48;2.35;;;;;;;13.58;100.00;99475.72;4995811;28;20722;-85
2023/08/08 00:34:44;;;;;;;13.98;2.70;;;;;;;13.60;100.00;99444.16;5008442;28;20037;-85
2023/08/08 00:37:09;;;;;;;12.93;3.60;;;;;;;13.54;100.00;99421.72;5024472;28;20087;-86
2023/08/08 00:39:34;;;;;;;19.87;3.37;;;;;;;13.48;100.00;99449.34;5012549;28;20068;-85
2023/08/08 00:42:00;;;;;;;14.83;3.13;;;;;;;13.39;100.00;99464.88;5013744;28;20064;-86
2023/08/08 00:44:25;;;;;;;20.33;3.43;;;;;;;13.38;100.00;99476.63;5013293;28;20033;-86
2023/08/08 00:46:51;;;;;;;21.93;3.13;;;;;;;13.30;100.00;99506.34;4997238;28;20079;-85
2023/08/08 00:49:16;;;;;;;9.07;2.70;;;;;;;13.34;100.00;99496.84;5013734;28;20037;-86
2023/08/08 00:51:42;;;;;;;11.10;3.23;;;;;;;13.33;100.00;99430.88;5011519;28;20144;-87
2023/08/08 00:54:09;;;;;;;9.23;2.38;;;;;;;13.37;100.00;99458.91;4996546;28;20061;-86
2023/08/08 00:56:35;;;;;;;28.08;5.57;;;;;;;13.34;100.00;99463.84;5012398;28;20091;-86
2023/08/08 00:59:02;;;;;;;23.65;3.45;;;;;;;13.30;100.00;99491.09;5026675;28;20034;-86
2023/08/08 01:01:27;;;;;;;15.65;3.20;;;;;;;13.28;100.00;99500.38;5010348;28;20435;-85
2023/08/08 01:03:53;;;;;;;8.95;2.70;;;;;;;13.35;100.00;99517.28;5012758;28;20041;-86
2023/08/08 01:06:34;;;;;;;12.85;2.75;;;;;;;13.35;100.00;99503.88;5030044;28;20033;-87
2023/08/08 01:09:19;;;;;;;13.38;3.15;;;;;;;13.44;100.00;99540.13;5011766;28;20034;-86
2023/08/08 01:11:48;;;;;;;15.13;3.55;;;;;;;13.40;100.00;99527.34;5029502;28;20503;-85
2023/08/08 01:14:15;;;;;;;12.70;3.20;;;;;;;13.39;100.00;99514.97;4996630;28;20033;-88
2023/08/08 01:16:41;;;;;;;10.70;2.45;;;;;;;13.38;100.00;99484.66;5010953;28;20077;-85
2023/08/08 01:19:07;;;;;;;15.73;3.20;;;;;;;13.44;100.00;99453.53;5008319;28;20042;-86
2023/08/08 01:21:40;;;;;;;18.30;3.65;;;;;;;13.45;100.00;99420.31;4999290;28;20047;-86
2023/08/08 01:24:17;;;;;;;21.98;5.38;;;;;;;13.42;100.00;99362.56;5029099;28;20076;-86
2023/08/08 01:26:43;;;;;;;11.75;3.45;;;;;;;13.47;100.00;99361.94;5012616;28;20033;-85
2023/08/08 01:29:08;;;;;;;10.20;2.70;;;;;;;13.39;100.00;99354.97;5012912;28;20041;-85
2023/08/08 01:31:34;;;;;;;15.07;2.83;;;;;;;13.26;100.00;99384.47;5024997;28;20284;-86
2023/08/08 01:33:59;;;;;;;10.63;3.10;;;;;;;13.18;100.00;99411.50;4998602;28;20076;-86
2023/08/08 01:36:35;;;;;;;12.47;2.80;;;;;;;13.28;100.00;99484.28;5026050;28;20021;-85
2023/08/08 01:39:04;;;;;;;;;;;;;;;13.36;100.00;99492.09;5029673;28;20061;-85
2023/08/08 01:41:32;;;;;;;7.63;2.70;;;;;;;13.24;100.00;99449.00;5009448;28;19916;-86
2023/08/08 01:43:58;;;;;;;24.20;3.85;;;;;;;13.01;100.00;99465.56;5004272;28;20060;-87
2023/08/08 01:46:24;;;;;;;;;;;;;;;13.17;100.00;99466.97;5018806;28;20035;-86
2023/08/08 01:48:52;;;;;;;10.70;2.83;;;;;;;13.19;100.00;99482.84;5012141;28;19913;-86
2023/08/08 01:51:18;;;;;;;14.30;4.20;;;;;;;13.02;100.00;99499.38;5012526;28;20817;-87
2023/08/08 01:53:43;;;;;;;12.13;2.70;;;;;;;13.11;100.00;99497.31;5010014;28;20037;-86
2023/08/08 01:56:08;;;;;;;11.37;2.83;;;;;;;13.09;100.00;99477.94;5028821;28;20034;-84
2023/08/08 01:58:35;;;;;;;16.60;3.00;;;;;;;13.10;100.00;99491.09;5007239;28;20034;-87
2023/08/08 02:01:01;;;;;;;14.13;2.90;;;;;;;13.11;100.00;99467.81;5012349;28;20041;-86
2023/08/08 02:03:26;;;;;;;16.50;3.03;;;;;;;13.19;100.00;99499.75;5003975;28;20040;-87
2023/08/08 02:05:51;;;;;;;16.07;3.13;;;;;;;13.21;100.00;99502.22;5011570;28;20041;-87
2023/08/08 02:08:18;;;;;;;16.53;3.70;;;;;;;13.22;100.00;99530.66;5020337;28;20037;-86
2023/08/08 02:10:43;;;;;;;12.13;2.97;;;;;;;13.26;100.00;99433.53;5010427;28;20014;-85
2023/08/08 02:13:08;;;;;;;10.43;2.70;;;;;;;13.33;100.00;99457.69;5005438;28;20042;-86
2023/08/08 02:15:34;;;;;;;12.00;3.10;;;;;;;13.35;100.00;99450.25;5028480;28;20094;-86
2023/08/08 02:18:00;;;;;;;16.87;3.40;;;;;;;13.32;100.00;99439.94;4991365;28;20041;-86
2023/08/08 02:20:25;;;;;;;;;;;;;;;13.33;100.00;99503.25;5027223;28;20118;-87
2023/08/08 02:22:51;;;;;;;15.85;3.85;;;;;;;13.30;100.00;99484.91;5014255;28;19913;-87
2023/08/08 02:25:17;;;;;;;11.77;4.30;;;;;;;13.20;100.00;99415.63;5011374;28;20036;-86
2023/08/08 02:27:42;;;;;;;9.03;2.50;;;;;;;13.14;100.00;99466.59;5030956;28;20095;-87
2023/08/08 02:30:09;;;;;;;12.27;2.63;;;;;;;13.06;100.00;99515.84;5031621;28;20297;-86
2023/08/08 02:32:35;;;;;;;9.32;3.47;;;;;;;12.90;100.00;99594.81;5030851;28;20467;-86
2023/08/08 02:35:00;;;;;;;13.00;2.60;;;;;;;12.79;100.00;99697.19;5014897;28;20061;-87
2023/08/08 02:37:26;;;;;;;7.85;2.63;;;;;;;12.78;100.00;99711.59;5031366;28;20483;-87
2023/08/08 02:39:51;;;;;;;10.23;3.23;;;;;;;12.85;100.00;99699.88;4997464;28;20064;-87
2023/08/08 02:42:16;;;;;;;14.00;2.53;;;;;;;12.75;100.00;99679.88;5014936;28;20037;-86
2023/08/08 02:44:43;;;;;;;14.93;2.53;;;;;;;12.80;100.00;99701.50;5015013;28;20033;-86
2023/08/08 02:47:08;;;;;;;8.50;2.37;;;;;;;12.73;100.00;99730.13;5015190;28;20025;-87
2023/08/08 02:49:34;;;;;;;10.68;3.20;;;;;;;12.68;100.00;99771.72;5011184;28;20272;-86
2023/08/08 02:52:01;;;;;;;12.65;2.53;;;;;;;12.67;100.00;99779.97;5010516;28;20065;-86
2023/08/08 02:54:28;;;;;;;8.07;2.40;;;;;;;12.61;100.00;99773.53;5011367;28;20030;-86
2023/08/08 02:56:54;;;;;;;13.60;3.90;;;;;;;12.50;100.00;99751.84;5008833;28;20093;-86
2023/08/08 02:59:20;;;;;;;9.23;2.83;;;;;;;12.62;100.00;99777.06;5015522;28;20034;-87
2023/08/08 03:01:47;;;;;;;14.93;2.42;;;;;;;12.77;100.00;99812.53;5012914;28;20464;-86
2023/08/08 03:04:16;;;;;;;12.40;2.58;;;;;;;12.77;100.00;99812.53;5011784;28;20036;-86
2023/08/08 03:06:41;;;;;;;7.97;2.38;;;;;;;12.89;100.00;99808.25;5014693;28;20477;-87
2023/08/08 03:09:07;;;;;;;10.57;2.83;;;;;;;12.95;100.00;99835.28;5015556;28;20681;-86
2023/08/08 03:11:34;;;;;;;13.13;2.88;;;;;;;12.92;100.00;99822.28;5035607;28;20041;-85
2023/08/08 03:13:59;;;;;;;13.90;3.37;;;;;;;12.87;100.00;99850.50;5043081;28;20038;-87
2023/08/08 03:16:25;;;;;;;9.80;2.40;;;;;;;12.87;100.00;99879.97;5021696;28;20043;-86
2023/08/08 03:18:52;;;;;;;9.05;2.28;;;;;;;12.71;100.00;99818.69;5011486;28;20033;-87
2023/08/08 03:21:17;;;;;;;13.37;2.90;;;;;;;12.67;100.00;99815.59;5015089;28;20041;-86
2023/08/08 03:23:44;;;;;;;10.40;2.60;;;;;;;12.53;100.00;99803.16;5016153;28;20087;-86
2023/08/08 03:26:09;;;;;;;15.85;3.60;;;;;;;12.48;100.00;99828.88;4996584;28;20044;-86
2023/08/08 03:28:35;;;;;;;6.20;2.00;;;;;;;12.45;100.00;99841.66;4999118;28;20025;-86
2023/08/08 03:31:02;;;;;;;9.53;2.80;;;;;;;12.51;100.00;99864.13;5015754;28;20057;-86
2023/08/08 03:33:28;;;;;;;12.02;2.10;;;;;;;12.58;100.00;99866.84;5015167;28;20600;-86
2023/08/08 03:35:54;;;;;;;20.13;2.67;;;;;;;12.66;100.00;99874.69;5015769;28;20121;-86
2023/08/08 03:38:20;;;;;;;9.48;2.47;;;;;;;12.65;100.00;99889.94;5012536;28;20053;-85
2023/08/08 03:40:45;;;;;;;18.50;5.23;;;;;;;12.66;100.00;99971.91;5015421;28;20041;-85
2023/08/08 03:43:10;;;;;;;13.37;2.57;;;;;;;12.47;100.00;100020.78;5032287;28;20083;-87
2023/08/08 03:45:36;;;;;;;10.20;3.27;;;;;;;12.35;100.00;100054.47;5011949;28;20034;-86
2023/08/08 03:48:01;;;;;;;9.90;2.47;;;;;;;12.14;100.00;100029.34;5016090;28;20068;-85
2023/08/08 03:50:27;;;;;;;;;;;;;;;12.12;100.00;100049.28;5017486;28;20034;-87
2023/08/08 03:52:53;;;;;;;11.43;3.30;;;;;;;12.08;100.00;100048.84;5012884;28;19924;-86
2023/08/08 03:55:18;;;;;;;11.23;2.58;;;;;;;11.97;100.00;100052.00;5007806;28;20037;-85
2023/08/08 03:57:44;;;;;;;13.97;3.77;;;;;;;11.92;100.00;100054.44;5022722;28;20428;-86
2023/08/08 04:00:11;;;;;;;11.25;2.13;;;;;;;11.73;100.00;100029.03;5033356;28;20478;-86
2023/08/08 04:02:39;;;;;;;8.48;2.22;;;;;;;11.72;100.00;100041.59;5026488;28;20033;-86
2023/08/08 04:05:05;;;;;;;13.77;2.90;;;;;;;11.80;100.00;100060.22;5000102;28;20092;-86
2023/08/08 04:07:31;;;;;;;10.23;2.63;;;;;;;11.65;100.00;100042.53;5017047;28;20025;-87
2023/08/08 04:09:56;;;;;;;18.45;2.70;;;;;;;11.58;100.00;100042.44;5016396;28;20559;-87
2023/08/08 04:12:21;;;;;;;14.80;3.57;;;;;;;11.49;100.00;100014.16;5012781;28;20115;-86
2023/08/08 04:14:47;;;;;;;21.40;3.13;;;;;;;11.59;100.00;100028.06;5014527;28;20534;-86
2023/08/08 04:17:12;;;;;;;13.67;2.77;;;;;;;11.63;100.00;100021.31;5008371;28;20044;-85
2023/08/08 04:19:38;;;;;;;5.63;2.53;;;;;;;11.65;100.00;100015.78;5015053;28;20133;-86
2023/08/08 04:22:03;;;;;;;11.57;2.27;;;;;;;11.73;100.00;100035.25;5011437;28;20034;-85
2023/08/08 04:24:28;;;;;;;13.13;2.77;;;;;;;11.83;100.00;100030.41;4996322;28;20324;-84
2023/08/08 04:26:54;;;;;;;13.23;2.70;;;;;;;11.90;100.00;100029.69;5033696;28;20025;-85
2023/08/08 04:29:19;;;;;;;14.30;3.20;;;;;;;11.93;100.00;100032.00;5031164;28;20132;-83
2023/08/08 04:31:44;;;;;;;13.17;4.10;;;;;;;11.96;100.00;100039.63;5011119;28;20034;-86
2023/08/08 04:34:10;;;;;;;10.93;3.63;;;;;;;11.99;100.00;100032.06;5016871;28;20052;-85
2023/08/08 04:36:35;;;;;;;8.90;2.67;;;;;;;11.87;100.00;100020.22;5017207;28;20115;-85
2023/08/08 04:39:01;;;;;;;13.33;2.57;;;;;;;12.01;100.00;100015.81;5017976;28;20037;-86
2023/08/08 04:41:26;;;;;;;13.07;4.97;;;;;;;11.88;100.00;99994.28;5016524;28;20075;-85
2023/08/08 04:43:51;;;;;;;9.63;2.80;;;;;;;11.97;100.00;99999.31;5018092;28;20029;-86
2023/08/08 04:46:17;;;;;;;9.10;3.03;;;;;;;11.87;100.00;99980.09;5029368;28;20052;-86
2023/08/08 04:48:42;;;;;;;16.43;2.60;;;;;;;11.92;100.00;99974.19;5019187;28;20068;-85
2023/08/08 04:51:08;;;;;;;12.43;2.17;;;;;;;12.13;100.00;99984.06;5036051;28;20125;-86
2023/08/08 04:53:33;;;;;;;13.25;2.30;;;;;;;12.19;100.00;99983.28;5033641;28;20037;-85
2023/08/08 04:55:59;;;;;;;17.33;2.53;;;;;;;12.23;100.00;99989.91;5017513;28;20052;-85
2023/08/08 04:58:24;;;;;;;12.40;2.30;;;;;;;12.30;100.00;99976.59;5019606;28;20037;-86
2023/08/08 05:00:52;;;;;;;8.50;2.13;;;;;;;12.54;100.00;99986.88;5018477;28;20517;-85
2023/08/08 05:03:18;;;;;;;8.90;2.45;;;;;;;12.71;100.00;99974.00;5033936;28;20044;-86
2023/08/08 05:05:46;;;;;;;7.03;2.72;;;;;;;12.75;100.00;99974.47;4998962;28;20030;-84
2023/08/08 05:08:13;;;;;;;9.57;2.92;;;;;;;12.90;100.00;99983.25;5014321;28;20034;-86
2023/08/08 05:10:38;;;;;;;;;;;;;;;12.90;100.00;99959.13;5017436;28;20025;-85
2023/08/08 05:13:03;;;;;;;;;;;;;;;13.02;100.00;99962.91;5031824;28;19974;-85
2023/08/08 05:15:29;;;;;;;13.53;2.20;;;;;;;12.94;100.00;99952.31;5013627;28;19909;-86
2023/08/08 05:17:55;;;;;;;9.07;2.87;;;;;;;12.88;100.00;99942.41;5018104;28;20033;-84
2023/08/08 05:20:21;;;;;;;11.65;2.20;;;;;;;12.73;100.00;99939.84;5018946;28;20037;-86
2023/08/08 05:22:47;;;;;;;8.30;2.90;;;;;;;12.66;100.00;99945.13;5032482;28;20072;-85
2023/08/08 05:25:13;;;;;;;9.75;2.25;;;;;;;12.53;100.00;99955.78;5017681;28;20033;-85
2023/08/08 05:27:38;;;;;;;11.43;4.57;;;;;;;12.67;100.00;99986.16;5019116;28;20419;-84
2023/08/08 05:30:05;;;;;;;5.68;2.03;;;;;;;12.73;100.00;99987.22;5014325;28;20034;-85
2023/08/08 05:32:30;;;;;;;;;;;;;;;12.79;100.00;99987.28;4998185;28;20045;-84
2023/08/08 05:34:57;;;;;;;;;;;;;;;12.84;100.00;99989.38;5016774;28;19909;-84
2023/08/08 05:37:22;;;;;;;9.35;2.35;;;;;;;13.28;100.00;99977.50;5016018;28;19917;-85
2023/08/08 05:39:47;;;;;;;9.30;2.10;;;;;;;14.19;100.00;99984.34;5017345;28;20022;-83
2023/08/08 05:42:13;;;;;;;9.97;2.50;;;;;;;15.43;100.00;99939.75;5006375;23;20050;-74
2023/08/08 05:44:38;;;;;;;12.47;2.97;;;;;;;15.05;100.00;99823.06;4988827;28;20034;-75
2023/08/08 05:47:04;;;;;;;8.17;2.80;;;;;;;14.70;100.00;99801.94;4983782;28;20041;-75
2023/08/08 05:49:29;;;;;;;9.35;2.40;;;;;;;14.96;100.00;99786.72;5000438;28;20070;-75
2023/08/08 05:51:54;;;;;;;9.63;2.30;;;;;;;15.03;100.00;99749.91;4991369;28;20042;-75
2023/08/08 05:54:20;;;;;;;9.60;2.33;;;;;;;14.90;100.00;99720.41;4987424;28;20129;-76
2023/08/08 05:56:46;;;;;;;9.43;2.30;;;;;;;14.36;100.00;99742.09;4987554;28;20113;-74
2023/08/08 05:59:11;;;;;;;25.80;3.35;;;;;;;13.92;100.00;99800.00;4979410;28;20038;-74
2023/08/08 06:01:37;;;;;;;7.03;2.30;;;;;;;13.64;100.00;99844.97;4982392;28;20038;-78
2023/08/08 06:04:03;;;;;;;13.77;2.53;;;;;;;13.69;100.00;99896.97;4998122;28;20649;-74
2023/08/08 06:06:28;;;;;;;9.18;2.20;;;;;;;13.51;100.00;99921.69;4975746;28;20041;-75
2023/08/08 06:08:54;;;;;;;9.73;2.47;;;;;;;13.55;100.00;99950.78;5005306;28;20030;-75
2023/08/08 06:11:21;;;;;;;13.50;2.53;;;;;;;13.58;100.00;99958.41;4985868;28;20043;-74
2023/08/08 06:13:46;;;;;;;11.75;3.40;;;;;;;13.54;100.00;99978.66;4999786;28;20022;-74
2023/08/08 06:16:12;;;;;;;15.73;3.20;;;;;;;13.15;100.00;99959.44;4987272;28;20034;-76
2023/08/08 06:18:37;;;;;;;10.73;2.50;;;;;;;13.33;100.00;99993.81;4986225;28;20039;-75
2023/08/08 06:21:02;;;;;;;8.27;2.40;;;;;;;13.44;100.00;100000.47;4979062;28;20031;-73
2023/08/08 06:23:28;;;;;;;15.60;2.33;;;;;;;13.55;100.00;99997.19;5002128;28;20038;-74
2023/08/08 06:25:53;;;;;;;17.80;4.43;;;;;;;13.74;100.00;100003.66;4985152;28;20120;-75
2023/08/08 06:28:19;;;;;;;9.07;2.17;;;;;;;13.84;100.00;99979.16;4996136;28;20045;-75
2023/08/08 06:30:44;;;;;;;14.40;2.73;;;;;;;13.75;100.00;99945.50;5001981;28;20105;-73
2023/08/08 06:33:10;;;;;;;15.53;4.53;;;;;;;14.09;100.00;99961.47;4982271;28;20030;-72
2023/08/08 06:35:35;;;;;;;14.57;2.13;;;;;;;14.28;100.00;99967.88;5005459;28;20360;-75
2023/08/08 06:38:00;;;;;;;13.53;2.50;;;;;;;14.20;100.00;99943.91;5002103;28;20026;-73
2023/08/08 06:40:27;;;;;;;10.93;2.00;;;;;;;14.49;100.00;99949.88;5002754;28;20049;-74
2023/08/08 06:42:52;;;;;;;;;;;;;;;14.44;100.00;99909.41;5002309;28;20517;-73
2023/08/08 06:45:17;;;;;;;;;;;;;;;14.25;100.00;99879.66;4969558;28;20012;-73
2023/08/08 06:47:43;;;;;;;13.20;1.90;;;;;;;14.32;100.00;99901.16;4985445;28;19909;-76
2023/08/08 06:50:09;;;;;;;11.53;2.20;;;;;;;14.49;100.00;99890.78;5006871;28;20074;-74
2023/08/08 06:52:34;;;;;;;7.57;2.97;;;;;;;14.59;100.00;99877.81;4994291;28;20027;-75
2023/08/08 06:54:59;;;;;;;10.23;2.00;;;;;;;15.07;100.00;99849.75;4992282;28;20045;-76
2023/08/08 06:57:24;;;;;;;3.23;1.50;;;;;;;15.08;100.00;99800.34;5005810;28;20397;-76
2023/08/08 06:59:52;;;;;;;8.27;2.47;;;;;;;15.81;100.00;99840.22;4985887;28;20370;-74
2023/08/08 07:02:19;;;;;;;6.82;2.22;;;;;;;16.63;100.00;99735.00;4985686;28;20038;-73
2023/08/08 07:04:45;;;;;;;8.30;1.83;;;;;;;15.73;100.00;99652.97;5001567;28;20124;-74
2023/08/08 07:07:10;;;;;;;7.20;1.90;;;;;;;15.18;100.00;99667.06;4978332;28;20105;-75
2023/08/08 07:09:37;;;;;;;8.20;2.50;;;;;;;14.86;100.00;99708.44;4994617;28;20058;-76
2023/08/08 07:12:03;;;;;;;9.15;2.00;;;;;;;15.29;100.00;99756.13;4986721;28;20046;-77
2023/08/08 07:14:28;;;;;;;;;;;;;;;16.79;100.00;99675.09;4989562;28;20062;-74
2023/08/08 07:16:54;;;;;;;;;;;;;;;16.43;100.00;99434.34;4988067;28;20392;-74
2023/08/08 07:19:19;;;;;;;11.90;1.80;;;;;;;16.38;100.00;99481.91;4971660;28;19917;-72
2023/08/08 07:21:44;;;;;;;8.57;2.30;;;;;;;15.94;100.00;99481.28;4986967;28;20080;-72
2023/08/08 07:24:10;;;;;;;6.47;1.70;;;;;;;17.00;100.00;99581.28;4978556;28;20031;-75
2023/08/08 07:26:35;;;;;;;4.93;2.33;;;;;;;16.94;100.00;99413.16;4981566;28;20034;-73
2023/08/08 07:29:00;;;;;;;7.87;1.97;;;;;;;16.83;100.00;99330.44;4985280;28;20093;-72
2023/08/08 07:31:26;;;;;;;8.37;1.97;;;;;;;16.90;100.00;99339.22;4993984;28;20026;-73
2023/08/08 07:33:51;;;;;;;6.50;1.93;;;;;;;17.46;100.00;99421.25;5001023;28;20041;-72
2023/08/08 07:36:16;;;;;;;8.87;2.37;;;;;;;16.24;100.00;99385.16;5001255;28;20872;-72
2023/08/08 07:38:42;;;;;;;11.70;2.17;;;;;;;15.22;100.00;99572.53;4984815;28;20157;-77
2023/08/08 07:41:07;;;;;;;8.77;1.80;;;;;;;15.15;100.00;99725.84;4986005;28;20375;-76
2023/08/08 07:43:33;;;;;;;11.57;2.30;;;;;;;15.32;100.00;99810.31;4977585;28;20404;-75
2023/08/08 07:45:59;;;;;;;6.43;2.28;;;;;;;16.41;100.00;99834.28;5001139;28;20040;-73
2023/08/08 07:48:24;;;;;;;6.90;2.00;;;;;;;16.77;100.00;99673.66;4979433;28;20039;-73
2023/08/08 07:50:49;;;;;;;8.00;2.87;;;;;;;16.70;100.00;99547.09;4982902;28;20125;-72
2023/08/08 07:53:15;;;;;;;6.63;1.83;;;;;;;17.20;100.00;99556.66;4997945;28;20065;-72
2023/08/08 07:55:40;;;;;;;8.33;1.30;;;;;;;17.00;100.00;99484.22;4984676;28;20029;-73
2023/08/08 07:58:05;;;;;;;6.30;2.00;;;;;;;16.76;100.00;99507.59;4982259;28;20033;-72
2023/08/08 08:00:31;;;;;;;8.63;2.60;;;;;;;17.70;100.00;99519.16;4981469;28;20073;-72
2023/08/08 08:02:56;;;;;;;5.27;1.37;;;;;;;17.12;100.00;99327.81;4999780;28;20066;-74
2023/08/08 08:05:21;;;;;;;3.33;1.63;;;;;;;17.87;100.00;99467.16;4972320;28;20121;-73
2023/08/08 08:07:47;;;;;;;4.60;2.10;;;;;;;17.80;100.00;99237.00;4989422;28;20057;-74
2023/08/08 08:10:13;;;;;;;9.73;2.25;;;;;;;17.72;100.00;99230.94;5001772;28;20478;-76
2023/08/08 08:12:41;;;;;;;6.70;1.92;;;;;;;18.11;100.00;99274.19;4986107;28;20078;-73
2023/08/08 08:15:08;;;;;;;7.65;2.10;;;;;;;18.21;100.00;99192.50;4981133;28;20108;-72
2023/08/08 08:17:33;;;;;;;9.95;2.55;;;;;;;18.75;100.00;99224.22;5001336;28;20375;-73
2023/08/08 08:19:59;;;;;;;11.33;1.87;;;;;;;18.88;100.00;99025.69;4987220;28;20038;-75
2023/08/08 08:22:24;;;;;;;6.55;1.70;;;;;;;18.92;100.00;99053.84;5004343;28;20289;-72
2023/08/08 08:24:50;;;;;;;6.90;1.80;;;;;;;19.30;100.00;99041.91;5003924;28;20030;-73
2023/08/08 08:27:15;;;;;;;6.40;2.10;;;;;;;18.84;100.00;98935.34;4988347;28;20029;-73
2023/08/08 08:29:41;;;;;;;8.07;1.65;;;;;;;18.58;100.00;98924.31;4988377;28;20389;-74
2023/08/08 08:32:06;;;;;;;4.72;1.58;;;;;;;19.78;100.00;99226.03;4989381;28;20085;-73
2023/08/08 08:34:32;;;;;;;4.37;1.60;;;;;;;19.98;100.00;98963.47;4989177;28;20077;-73
2023/08/08 08:36:57;;;;;;;9.43;1.77;;;;;;;20.36;100.00;98907.13;5004202;28;20580;-74
2023/08/08 08:39:23;;;;;;;4.73;1.40;;;;;;;19.33;100.00;98822.22;4990617;28;20481;-77
2023/08/08 08:41:54;;;;;;;6.93;1.50;;;;;;;19.12;100.00;98769.97;4996053;28;20396;-73
2023/08/08 08:44:21;;;;;;;4.28;1.38;;;;;;;19.22;100.00;98736.72;4978795;28;20520;-73
2023/08/08 08:46:48;;;;;;;10.23;2.00;;;;;;;19.79;100.00;98873.78;4992621;28;20072;-73
2023/08/08 08:49:14;;;;;;;5.25;1.40;;;;;;;19.97;100.00;98684.75;4992545;28;20030;-74
2023/08/08 08:51:39;;;;;;;10.43;1.58;;;;;;;19.52;100.00;98618.75;5006147;28;20022;-74
2023/08/08 08:54:05;;;;;;;8.20;1.20;;;;;;;19.07;100.00;98402.19;5004404;28;20512;-72
2023/08/08 08:56:32;;;;;;;5.07;1.42;;;;;;;19.76;100.00;98546.75;4996165;28;20281;-73
2023/08/08 08:58:59;;;;;;;5.03;1.23;;;;;;;19.59;100.00;98391.94;4993456;28;20042;-76
2023/08/08 09:01:24;;;;;;;;;;;;;;;19.22;100.00;98419.44;4980736;28;20088;-73
2023/08/08 09:03:49;;;;;;;4.85;1.95;;;;;;;19.29;100.00;98531.69;4994021;28;20376;-74
2023/08/08 09:06:16;;;;;;;3.87;1.47;;;;;;;19.18;100.00;98697.78;4988550;28;20041;-73
2023/08/08 09:08:42;;;;;;;6.82;1.75;;;;;;;19.15;100.00;98836.25;4971241;28;20066;-73
2023/08/08 09:11:07;;;;;;;6.53;1.40;;;;;;;18.76;100.00;99090.69;4980034;28;20062;-72
2023/08/08 09:13:38;;;;;;;3.15;1.20;;;;;;;17.64;100.00;98898.59;4986802;28;20088;-75
2023/08/08 09:16:05;;;;;;;4.63;1.55;;;;;;;16.34;100.00;99252.63;4978797;28;20041;-72
2023/08/08 09:18:31;;;;;;;7.95;2.15;;;;;;;16.78;100.00;99624.91;4983238;28;20024;-72
2023/08/08 09:20:58;;;;;;;11.10;1.65;;;;;;;17.09;100.00;99547.50;5003110;28;20030;-72
2023/08/08 09:23:23;;;;;;;6.40;1.67;;;;;;;16.95;100.00;99559.56;4995597;28;20030;-73
2023/08/08 09:25:49;;;;;;;11.93;2.13;;;;;;;18.43;100.00;99584.31;4987948;28;20539;-73
2023/08/08 09:28:14;;;;;;;5.43;1.17;;;;;;;17.50;100.00;99324.47;4992673;28;20073;-72
2023/08/08 09:30:41;;;;;;;3.70;1.30;;;;;;;16.32;100.00;99419.00;5010699;28;20040;-72
2023/08/08 09:33:07;;;;;;;5.63;1.60;;;;;;;16.32;100.00;99806.00;4983132;28;20029;-72
2023/08/08 09:35:32;;;;;;;7.83;1.43;;;;;;;15.57;100.00;99786.16;4973635;28;20038;-73
2023/08/08 09:37:59;;;;;;;11.70;1.97;;;;;;;15.26;100.00;99926.78;4970252;28;20120;-75
2023/08/08 09:40:25;;;;;;;6.65;2.25;;;;;;;15.01;100.00;100001.97;4982275;28;20038;-72
2023/08/08 09:42:53;;;;;;;11.27;2.25;;;;;;;14.72;100.00;100000.53;4990228;28;20080;-74
2023/08/08 09:45:19;;;;;;;12.50;1.98;;;;;;;14.20;100.00;100000.28;4995425;28;20073;-75
2023/08/08 09:47:45;;;;;;;7.10;1.93;;;;;;;14.15;100.00;99970.53;4985983;28;20023;-76
2023/08/08 09:50:10;;;;;;;9.00;1.95;;;;;;;14.49;100.00;100041.19;4988933;28;20791;-76
2023/08/08 09:52:39;;;;;;;8.00;3.10;;;;;;;14.84;100.00;100062.53;5002226;28;20026;-74
2023/08/08 09:55:05;;;;;;;6.57;2.20;;;;;;;14.97;100.00;100019.53;5002299;28;20042;-74
2023/08/08 09:57:32;;;;;;;5.00;1.57;;;;;;;14.84;100.00;100003.41;5002614;28;20015;-75
2023/08/08 09:59:57;;;;;;;7.55;1.77;;;;;;;14.96;100.00;99966.78;5001995;28;20285;-74
2023/08/08 10:02:23;;;;;;;11.17;1.57;;;;;;;15.00;100.00;99965.34;4992553;28;20076;-76
2023/08/08 10:04:48;;;;;;;6.25;1.60;;;;;;;16.22;100.00;100008.50;4986535;28;20049;-76
2023/08/08 10:07:15;;;;;;;5.37;1.23;;;;;;;15.83;100.00;99875.84;4990868;28;20030;-74
2023/08/08 10:09:40;;;;;;;6.90;2.40;;;;;;;15.46;100.00;99902.50;4986236;28;20038;-74
2023/08/08 10:12:07;;;;;;;11.93;1.70;;;;;;;15.11;100.00;99853.66;4986287;28;20040;-74
2023/08/08 10:14:36;;;;;;;9.20;1.90;;;;;;;15.04;100.00;99860.94;4986136;28;20093;-73
2023/08/08 10:17:06;;;;;;;4.20;1.42;;;;;;;14.92;100.00;99856.22;5002029;28;20058;-74
2023/08/08 10:19:32;;;;;;;7.65;1.52;;;;;;;15.20;100.00;99888.16;5002899;28;20045;-74
2023/08/08 10:22:03;;;;;;;;;;;;;;;14.60;100.00;99814.97;5002687;28;20080;-75
2023/08/08 10:24:34;;;;;;;7.03;2.25;;;;;;;15.00;100.00;99841.69;4986849;28;20028;-75
2023/08/08 10:27:01;;;;;;;4.90;1.60;;;;;;;15.43;100.00;99827.63;4984556;28;20027;-74
2023/08/08 10:29:29;;;;;;;6.20;1.20;;;;;;;16.37;100.00;99817.78;4982743;28;20022;-76
2023/08/08 10:32:04;;;;;;;4.82;1.50;;;;;;;16.08;100.00;99697.31;4983613;28;20409;-74
2023/08/08 10:34:38;;;;;;;5.90;1.30;;;;;;;16.53;100.00;99659.25;4986345;28;20030;-74
2023/08/08 10:37:15;;;;;;;12.85;2.67;;;;;;;17.78;100.00;99704.22;5001548;28;20034;-74
2023/08/08 10:39:54;;;;;;;6.07;1.40;;;;;;;17.81;100.00;99621.97;4987000;28;20105;-74
2023/08/08 10:42:22;;;;;;;3.10;1.02;;;;;;;18.63;100.00;99574.94;4986386;28;20046;-73
2023/08/08 10:44:56;;;;;;;5.75;1.38;;;;;;;19.11;100.00;99577.13;4986062;28;20022;-74
2023/08/08 10:47:23;;;;;;;6.75;1.30;;;;;;;18.41;100.00;99502.69;5001883;28;20036;-75
2023/08/08 10:50:09;;;;;;;9.23;2.13;;;;;;;17.97;100.00;99326.09;4986496;28;20026;-74
2023/08/08 10:52:52;;;;;;;5.75;1.48;;;;;;;17.06;100.00;99416.66;4981571;28;20429;-74
2023/08/08 10:55:32;;;;;;;6.13;1.55;;;;;;;16.67;100.00;99636.50;4977675;28;20132;-77
2023/08/08 10:58:15;;;;;;;9.60;1.60;;;;;;;15.62;100.00;99754.03;4979627;28;20031;-76
2023/08/08 11:00:42;;;;;;;12.48;2.28;;;;;;;15.19;100.00;99885.66;4988066;28;20390;-76
2023/08/08 11:03:08;;;;;;;12.43;1.88;;;;;;;14.59;100.00;99885.88;4986831;28;20061;-75
2023/08/08 11:05:36;;;;;;;13.30;3.65;;;;;;;14.39;100.00;99957.53;4998444;28;20026;-76
2023/08/08 11:08:03;;;;;;;11.43;2.10;;;;;;;14.03;100.00;99961.44;4987939;28;20033;-75
2023/08/08 11:10:32;;;;;;;18.88;3.22;;;;;;;14.39;100.00;100036.22;5004274;28;20045;-76
2023/08/08 11:12:59;;;;;;;13.02;3.40;;;;;;;14.18;100.00;100014.94;4987874;28;20025;-79
2023/08/08 11:15:26;;;;;;;11.55;2.65;;;;;;;14.01;100.00;100011.81;5003190;28;20037;-78
2023/08/08 11:17:52;;;;;;;10.55;1.92;;;;;;;13.69;100.00;99972.06;4987910;28;20022;-77
2023/08/08 11:20:18;;;;;;;6.32;1.50;;;;;;;13.45;100.00;99890.31;5005029;28;20066;-78